Station Historical Data
Daily Summary for December 7, 2017 Units:  Both    English   Metric
« Previous Day
Next Day »
Daily Weekly Monthly Yearly Custom
  High: Low: Average:
Temperature: 48.7 °F /  9.3 °C 39.5 °F /  4.2 °C 42.6 °F /  5.9 °C
Dew Point: 33.1 °F /  0.6 °C 25.4 °F /  -3.7 °C 30 °F /  -1.1 °C
Humidity: 72% 41% 62%
Wind Speed: 5.8mph /  9.3km/h - 1.1mph /  1.8km/h
Wind Gust: 4.6mph /  7.4km/h - -
Wind- - SSE
Pressure: 30.25 in /  1024.3 hPa 30.14 in /  1020.5 hPa -
Precipitation: 0.00 in /  0 mm    
Historical Graphs
 
 
Tabular Data for December 7, 2017
Time Temperature Dew Point Pressure Wind Wind Speed Wind Gust Humidity Rainfall Rate (Hourly) Conditions
00:03 39.5 °F /  4.2 °C 30.9 °F /  -0.6 °C 30.23in /  1023.6hPa Calm     71% 0.00in /  0mm CLR
00:07 39.5 °F /  4.2 °C 31.2 °F /  -0.4 °C 30.24in /  1023.9hPa Calm     72% 0.00in /  0mm CLR
00:12 39.6 °F /  4.2 °C 30.6 °F /  -0.8 °C 30.24in /  1023.9hPa Calm     70% 0.00in /  0mm CLR
00:17 39.6 °F /  4.2 °C 29.9 °F /  -1.2 °C 30.24in /  1023.9hPa Calm     68% 0.00in /  0mm CLR
00:23 39.7 °F /  4.3 °C 30.0 °F /  -1.1 °C 30.23in /  1023.6hPa Calm     68% 0.00in /  0mm CLR
00:28 39.8 °F /  4.3 °C 30.1 °F /  -1.1 °C 30.23in /  1023.6hPa Calm     68% 0.00in /  0mm CLR
00:33 39.9 °F /  4.4 °C 30.9 °F /  -0.6 °C 30.23in /  1023.6hPa Calm     70% 0.00in /  0mm CLR
00:38 39.8 °F /  4.3 °C 30.1 °F /  -1.1 °C 30.22in /  1023.2hPa Calm     68% 0.00in /  0mm CLR
00:43 39.8 °F /  4.3 °C 30.1 °F /  -1.1 °C 30.22in /  1023.2hPa Calm     68% 0.00in /  0mm CLR
00:48 39.7 °F /  4.3 °C 28.9 °F /  -1.7 °C 30.21in /  1022.9hPa NNE 1.2mph /  1.9km/h   65% 0.00in /  0mm CLR
00:53 39.9 °F /  4.4 °C 29.1 °F /  -1.6 °C 30.22in /  1023.2hPa North 1.2mph /  1.9km/h   65% 0.00in /  0mm CLR
00:58 39.9 °F /  4.4 °C 29.5 °F /  -1.4 °C 30.22in /  1023.2hPa NNW 1.2mph /  1.9km/h   66% 0.00in /  0mm CLR
01:03 39.9 °F /  4.4 °C 29.8 °F /  -1.2 °C 30.22in /  1023.2hPa Calm     67% 0.00in /  0mm CLR
01:08 39.9 °F /  4.4 °C 29.8 °F /  -1.2 °C 30.22in /  1023.2hPa Calm     67% 0.00in /  0mm CLR
01:13 39.8 °F /  4.3 °C 29.4 °F /  -1.4 °C 30.22in /  1023.2hPa Calm     66% 0.00in /  0mm CLR
01:18 39.8 °F /  4.3 °C 29.7 °F /  -1.3 °C 30.22in /  1023.2hPa Calm     67% 0.00in /  0mm CLR
01:23 39.7 °F /  4.3 °C 29.6 °F /  -1.3 °C 30.22in /  1023.2hPa Calm     67% 0.00in /  0mm CLR
01:28 39.7 °F /  4.3 °C 29.3 °F /  -1.5 °C 30.22in /  1023.2hPa NW 1.2mph /  1.9km/h   66% 0.00in /  0mm CLR
01:34 39.7 °F /  4.3 °C 30.0 °F /  -1.1 °C 30.23in /  1023.6hPa WSW 1.2mph /  1.9km/h   68% 0.00in /  0mm CLR
01:39 39.7 °F /  4.3 °C 30.0 °F /  -1.1 °C 30.22in /  1023.2hPa Calm     68% 0.00in /  0mm CLR
01:44 39.7 °F /  4.3 °C 29.6 °F /  -1.3 °C 30.21in /  1022.9hPa Calm     67% 0.00in /  0mm CLR
01:49 39.7 °F /  4.3 °C 30.0 °F /  -1.1 °C 30.21in /  1022.9hPa Calm     68% 0.00in /  0mm CLR
01:54 39.7 °F /  4.3 °C 30.4 °F /  -0.9 °C 30.22in /  1023.2hPa Calm     69% 0.00in /  0mm CLR
01:59 39.6 °F /  4.2 °C 29.5 °F /  -1.4 °C 30.22in /  1023.2hPa Calm     67% 0.00in /  0mm CLR
02:04 39.6 °F /  4.2 °C 30.6 °F /  -0.8 °C 30.22in /  1023.2hPa Calm     70% 0.00in /  0mm CLR
02:09 39.7 °F /  4.3 °C 30.0 °F /  -1.1 °C 30.22in /  1023.2hPa Calm     68% 0.00in /  0mm CLR
02:14 39.7 °F /  4.3 °C 29.6 °F /  -1.3 °C 30.22in /  1023.2hPa Calm     67% 0.00in /  0mm CLR
02:19 39.7 °F /  4.3 °C 29.6 °F /  -1.3 °C 30.22in /  1023.2hPa Calm     67% 0.00in /  0mm CLR
02:24 39.7 °F /  4.3 °C 29.3 °F /  -1.5 °C 30.22in /  1023.2hPa Calm     66% 0.00in /  0mm CLR
02:29 39.7 °F /  4.3 °C 30.0 °F /  -1.1 °C 30.23in /  1023.6hPa Calm     68% 0.00in /  0mm CLR
02:34 39.7 °F /  4.3 °C 29.6 °F /  -1.3 °C 30.22in /  1023.2hPa Calm     67% 0.00in /  0mm CLR
02:40 39.7 °F /  4.3 °C 29.6 °F /  -1.3 °C 30.22in /  1023.2hPa Calm     67% 0.00in /  0mm CLR
02:45 39.7 °F /  4.3 °C 30.0 °F /  -1.1 °C 30.22in /  1023.2hPa Calm     68% 0.00in /  0mm CLR
02:50 39.7 °F /  4.3 °C 30.4 °F /  -0.9 °C 30.22in /  1023.2hPa Calm     69% 0.00in /  0mm CLR
02:55 39.7 °F /  4.3 °C 30.0 °F /  -1.1 °C 30.23in /  1023.6hPa Calm     68% 0.00in /  0mm CLR
03:00 39.7 °F /  4.3 °C 30.4 °F /  -0.9 °C 30.22in /  1023.2hPa Calm     69% 0.00in /  0mm CLR
03:05 39.7 °F /  4.3 °C 30.4 °F /  -0.9 °C 30.22in /  1023.2hPa Calm     69% 0.00in /  0mm CLR
03:10 39.7 °F /  4.3 °C 30.7 °F /  -0.7 °C 30.23in /  1023.6hPa Calm     70% 0.00in /  0mm CLR
03:15 39.7 °F /  4.3 °C 30.0 °F /  -1.1 °C 30.22in /  1023.2hPa Calm     68% 0.00in /  0mm CLR
03:20 39.6 °F /  4.2 °C 29.9 °F /  -1.2 °C 30.23in /  1023.6hPa Calm     68% 0.00in /  0mm CLR
03:25 39.6 °F /  4.2 °C 30.6 °F /  -0.8 °C 30.22in /  1023.2hPa Calm     70% 0.00in /  0mm CLR
03:30 39.6 °F /  4.2 °C 30.3 °F /  -0.9 °C 30.23in /  1023.6hPa Calm     69% 0.00in /  0mm CLR
03:35 39.6 °F /  4.2 °C 30.3 °F /  -0.9 °C 30.23in /  1023.6hPa Calm     69% 0.00in /  0mm CLR
03:40 39.6 °F /  4.2 °C 31.0 °F /  -0.6 °C 30.22in /  1023.2hPa Calm     71% 0.00in /  0mm CLR
03:46 39.6 °F /  4.2 °C 31.0 °F /  -0.6 °C 30.22in /  1023.2hPa Calm     71% 0.00in /  0mm CLR
03:51 39.6 °F /  4.2 °C 31.0 °F /  -0.6 °C 30.22in /  1023.2hPa Calm     71% 0.00in /  0mm CLR
03:56 39.5 °F /  4.2 °C 30.9 °F /  -0.6 °C 30.22in /  1023.2hPa Calm     71% 0.00in /  0mm CLR
04:01 39.6 °F /  4.2 °C 31.0 °F /  -0.6 °C 30.22in /  1023.2hPa Calm     71% 0.00in /  0mm CLR
04:06 39.6 °F /  4.2 °C 30.6 °F /  -0.8 °C 30.22in /  1023.2hPa Calm     70% 0.00in /  0mm CLR
04:11 39.6 °F /  4.2 °C 30.3 °F /  -0.9 °C 30.22in /  1023.2hPa Calm     69% 0.00in /  0mm CLR
04:16 39.6 °F /  4.2 °C 30.6 °F /  -0.8 °C 30.21in /  1022.9hPa Calm     70% 0.00in /  0mm CLR
04:21 39.6 °F /  4.2 °C 30.3 °F /  -0.9 °C 30.21in /  1022.9hPa Calm     69% 0.00in /  0mm CLR
04:26 39.6 °F /  4.2 °C 30.3 °F /  -0.9 °C 30.21in /  1022.9hPa Calm     69% 0.00in /  0mm CLR
04:31 39.7 °F /  4.3 °C 30.7 °F /  -0.7 °C 30.21in /  1022.9hPa Calm     70% 0.00in /  0mm CLR
04:36 39.6 °F /  4.2 °C 31.0 °F /  -0.6 °C 30.21in /  1022.9hPa Calm     71% 0.00in /  0mm CLR
04:42 39.6 °F /  4.2 °C 30.3 °F /  -0.9 °C 30.21in /  1022.9hPa Calm     69% 0.00in /  0mm CLR
04:47 39.6 °F /  4.2 °C 30.6 °F /  -0.8 °C 30.22in /  1023.2hPa Calm     70% 0.00in /  0mm CLR
04:52 39.6 °F /  4.2 °C 31.0 °F /  -0.6 °C 30.21in /  1022.9hPa Calm     71% 0.00in /  0mm CLR
04:57 39.6 °F /  4.2 °C 31.0 °F /  -0.6 °C 30.20in /  1022.6hPa Calm     71% 0.00in /  0mm CLR
05:02 39.6 °F /  4.2 °C 31.3 °F /  -0.4 °C 30.20in /  1022.6hPa Calm     72% 0.00in /  0mm BKN
05:07 39.6 °F /  4.2 °C 30.3 °F /  -0.9 °C 30.20in /  1022.6hPa Calm     69% 0.00in /  0mm BKN
05:12 39.5 °F /  4.2 °C 30.5 °F /  -0.8 °C 30.21in /  1022.9hPa Calm     70% 0.00in /  0mm BKN
05:17 39.5 °F /  4.2 °C 30.5 °F /  -0.8 °C 30.20in /  1022.6hPa Calm     70% 0.00in /  0mm BKN
05:22 39.5 °F /  4.2 °C 30.9 °F /  -0.6 °C 30.21in /  1022.9hPa Calm     71% 0.00in /  0mm BKN
05:27 39.5 °F /  4.2 °C 31.2 °F /  -0.4 °C 30.21in /  1022.9hPa Calm   0.1mph /  0.2km/h 72% 0.00in /  0mm BKN
05:32 39.6 °F /  4.2 °C 31.0 °F /  -0.6 °C 30.21in /  1022.9hPa WNW 1.2mph /  1.9km/h   71% 0.00in /  0mm BKN
05:37 39.6 °F /  4.2 °C 31.0 °F /  -0.6 °C 30.19in /  1022.2hPa West 1.2mph /  1.9km/h   71% 0.00in /  0mm BKN
05:42 39.5 °F /  4.2 °C 30.9 °F /  -0.6 °C 30.20in /  1022.6hPa West 1.2mph /  1.9km/h   71% 0.00in /  0mm BKN
05:48 39.6 °F /  4.2 °C 30.6 °F /  -0.8 °C 30.21in /  1022.9hPa Calm     70% 0.00in /  0mm BKN
05:53 39.6 °F /  4.2 °C 30.6 °F /  -0.8 °C 30.21in /  1022.9hPa Calm     70% 0.00in /  0mm BKN
05:58 39.6 °F /  4.2 °C 30.6 °F /  -0.8 °C 30.21in /  1022.9hPa WNW 1.2mph /  1.9km/h   70% 0.00in /  0mm BKN
06:03 39.7 °F /  4.3 °C 30.4 °F /  -0.9 °C 30.21in /  1022.9hPa NW 1.2mph /  1.9km/h   69% 0.00in /  0mm BKN
06:08 39.6 °F /  4.2 °C 30.6 °F /  -0.8 °C 30.21in /  1022.9hPa Calm     70% 0.00in /  0mm BKN
06:13 39.6 °F /  4.2 °C 30.6 °F /  -0.8 °C 30.21in /  1022.9hPa Calm     70% 0.00in /  0mm BKN
06:18 39.6 °F /  4.2 °C 30.6 °F /  -0.8 °C 30.21in /  1022.9hPa Calm     70% 0.00in /  0mm BKN
06:23 39.6 °F /  4.2 °C 30.6 °F /  -0.8 °C 30.21in /  1022.9hPa Calm     70% 0.00in /  0mm BKN
06:28 39.6 °F /  4.2 °C 30.6 °F /  -0.8 °C 30.21in /  1022.9hPa Calm     70% 0.00in /  0mm BKN
06:33 39.6 °F /  4.2 °C 30.6 °F /  -0.8 °C 30.21in /  1022.9hPa Calm     70% 0.00in /  0mm BKN
06:38 39.6 °F /  4.2 °C 30.6 °F /  -0.8 °C 30.21in /  1022.9hPa NNW 1.2mph /  1.9km/h   70% 0.00in /  0mm BKN
06:43 39.7 °F /  4.3 °C 31.1 °F /  -0.5 °C 30.21in /  1022.9hPa WNW 1.2mph /  1.9km/h   71% 0.00in /  0mm BKN
06:48 39.7 °F /  4.3 °C 30.4 °F /  -0.9 °C 30.21in /  1022.9hPa WNW 1.2mph /  1.9km/h 1.2mph /  1.9km/h 69% 0.00in /  0mm BKN
06:53 39.7 °F /  4.3 °C 30.7 °F /  -0.7 °C 30.21in /  1022.9hPa WNW 1.2mph /  1.9km/h   70% 0.00in /  0mm BKN
06:59 39.7 °F /  4.3 °C 31.1 °F /  -0.5 °C 30.21in /  1022.9hPa WNW 1.2mph /  1.9km/h   71% 0.00in /  0mm BKN
07:04 39.7 °F /  4.3 °C 30.0 °F /  -1.1 °C 30.21in /  1022.9hPa WNW 1.2mph /  1.9km/h   68% 0.00in /  0mm SCT
07:09 39.8 °F /  4.3 °C 30.5 °F /  -0.8 °C 30.21in /  1022.9hPa WNW 1.2mph /  1.9km/h   69% 0.00in /  0mm SCT
07:14 39.8 °F /  4.3 °C 30.5 °F /  -0.8 °C 30.21in /  1022.9hPa WNW 1.2mph /  1.9km/h   69% 0.00in /  0mm SCT
07:19 39.8 °F /  4.3 °C 30.1 °F /  -1.1 °C 30.22in /  1023.2hPa WNW 1.2mph /  1.9km/h   68% 0.00in /  0mm SCT
07:24 39.8 °F /  4.3 °C 30.1 °F /  -1.1 °C 30.22in /  1023.2hPa North 1.2mph /  1.9km/h   68% 0.00in /  0mm SCT
07:29 39.9 °F /  4.4 °C 30.2 °F /  -1 °C 30.21in /  1022.9hPa NNE 1.2mph /  1.9km/h   68% 0.00in /  0mm SCT
07:34 39.9 °F /  4.4 °C 30.5 °F /  -0.8 °C 30.22in /  1023.2hPa ENE 1.2mph /  1.9km/h   69% 0.00in /  0mm SCT
07:43 39.9 °F /  4.4 °C 30.2 °F /  -1 °C 30.22in /  1023.2hPa East 1.2mph /  1.9km/h   68% 0.00in /  0mm SCT
07:48 39.9 °F /  4.4 °C 30.9 °F /  -0.6 °C 30.22in /  1023.2hPa East 1.2mph /  1.9km/h   70% 0.00in /  0mm SCT
07:53 39.9 °F /  4.4 °C 30.5 °F /  -0.8 °C 30.22in /  1023.2hPa Calm     69% 0.00in /  0mm SCT
07:58 39.9 °F /  4.4 °C 30.2 °F /  -1 °C 30.22in /  1023.2hPa ESE 1.2mph /  1.9km/h 1.2mph /  1.9km/h 68% 0.00in /  0mm SCT
08:03 40.0 °F /  4.4 °C 30.3 °F /  -0.9 °C 30.22in /  1023.2hPa South 1.2mph /  1.9km/h 1.2mph /  1.9km/h 68% 0.00in /  0mm OVC
08:08 40.1 °F /  4.5 °C 30.4 °F /  -0.9 °C 30.22in /  1023.2hPa South 1.2mph /  1.9km/h   68% 0.00in /  0mm OVC
08:13 40.1 °F /  4.5 °C 30.4 °F /  -0.9 °C 30.22in /  1023.2hPa SSE 1.2mph /  1.9km/h   68% 0.00in /  0mm OVC
08:18 40.1 °F /  4.5 °C 30.7 °F /  -0.7 °C 30.23in /  1023.6hPa SSW 1.2mph /  1.9km/h   69% 0.00in /  0mm OVC
08:23 40.1 °F /  4.5 °C 30.4 °F /  -0.9 °C 30.23in /  1023.6hPa SW 1.2mph /  1.9km/h   68% 0.00in /  0mm OVC
08:33 40.2 °F /  4.6 °C 30.5 °F /  -0.8 °C 30.22in /  1023.2hPa South 1.2mph /  1.9km/h   68% 0.00in /  0mm OVC
08:49 40.4 °F /  4.7 °C 30.3 °F /  -0.9 °C 30.23in /  1023.6hPa East 1.2mph /  1.9km/h   67% 0.00in /  0mm OVC
08:54 40.5 °F /  4.7 °C 30.8 °F /  -0.7 °C 30.24in /  1023.9hPa East 1.2mph /  1.9km/h   68% 0.00in /  0mm OVC
08:59 40.6 °F /  4.8 °C 30.5 °F /  -0.8 °C 30.24in /  1023.9hPa East 1.2mph /  1.9km/h 1.2mph /  1.9km/h 67% 0.00in /  0mm OVC
09:04 40.7 °F /  4.8 °C 30.2 °F /  -1 °C 30.24in /  1023.9hPa East 2.3mph /  3.7km/h 2.3mph /  3.7km/h 66% 0.00in /  0mm OVC
09:09 40.9 °F /  4.9 °C 30.4 °F /  -0.9 °C 30.24in /  1023.9hPa East 2.3mph /  3.7km/h 2.3mph /  3.7km/h 66% 0.00in /  0mm OVC
09:14 41.1 °F /  5.1 °C 30.2 °F /  -1 °C 30.24in /  1023.9hPa ENE 3.5mph /  5.6km/h 3.5mph /  5.6km/h 65% 0.00in /  0mm OVC
09:24 41.4 °F /  5.2 °C 30.1 °F /  -1.1 °C 30.24in /  1023.9hPa ESE 3.5mph /  5.6km/h 3.5mph /  5.6km/h 64% 0.00in /  0mm OVC
09:29 41.5 °F /  5.3 °C 30.2 °F /  -1 °C 30.24in /  1023.9hPa ESE 3.5mph /  5.6km/h 3.5mph /  5.6km/h 64% 0.00in /  0mm OVC
09:34 41.6 °F /  5.3 °C 30.3 °F /  -0.9 °C 30.24in /  1023.9hPa ESE 2.3mph /  3.7km/h 2.3mph /  3.7km/h 64% 0.00in /  0mm OVC
09:39 41.7 °F /  5.4 °C 30.4 °F /  -0.9 °C 30.24in /  1023.9hPa ESE 3.5mph /  5.6km/h 3.5mph /  5.6km/h 64% 0.00in /  0mm OVC
09:44 41.8 °F /  5.4 °C 29.7 °F /  -1.3 °C 30.25in /  1024.3hPa ESE 4.6mph /  7.4km/h 4.6mph /  7.4km/h 62% 0.00in /  0mm OVC
09:50 42.0 °F /  5.6 °C 30.3 °F /  -0.9 °C 30.25in /  1024.3hPa Calm   1.0mph /  1.6km/h 63% 0.00in /  0mm OVC
09:55 42.2 °F /  5.7 °C 30.1 °F /  -1.1 °C 30.25in /  1024.3hPa Calm   2.0mph /  3.2km/h 62% 0.00in /  0mm OVC
10:00 42.4 °F /  5.8 °C 31.1 °F /  -0.5 °C 30.25in /  1024.3hPa East 2.3mph /  3.7km/h   64% 0.00in /  0mm OVC
10:15 43.1 °F /  6.2 °C 30.6 °F /  -0.8 °C 30.25in /  1024.3hPa East 2.3mph /  3.7km/h   61% 0.00in /  0mm OVC
10:25 43.4 °F /  6.3 °C 31.2 °F /  -0.4 °C 30.25in /  1024.3hPa North 1.2mph /  1.9km/h 1.2mph /  1.9km/h 62% 0.00in /  0mm OVC
10:40 43.7 °F /  6.5 °C 30.7 °F /  -0.7 °C 30.25in /  1024.3hPa ESE 2.3mph /  3.7km/h 2.3mph /  3.7km/h 60% 0.00in /  0mm OVC
10:46 43.7 °F /  6.5 °C 31.1 °F /  -0.5 °C 30.25in /  1024.3hPa SE 2.3mph /  3.7km/h 2.3mph /  3.7km/h 61% 0.00in /  0mm OVC
10:51 43.7 °F /  6.5 °C 30.7 °F /  -0.7 °C 30.25in /  1024.3hPa ESE 1.2mph /  1.9km/h   60% 0.00in /  0mm OVC
10:56 43.9 °F /  6.6 °C 30.9 °F /  -0.6 °C 30.25in /  1024.3hPa ESE 1.2mph /  1.9km/h   60% 0.00in /  0mm OVC
11:06 44.1 °F /  6.7 °C 31.9 °F /  -0.1 °C 30.25in /  1024.3hPa East 1.2mph /  1.9km/h 1.2mph /  1.9km/h 62% 0.00in /  0mm OVC
11:11 44.2 °F /  6.8 °C 31.6 °F /  -0.2 °C 30.25in /  1024.3hPa West 1.2mph /  1.9km/h   61% 0.00in /  0mm OVC
11:26 44.5 °F /  6.9 °C 30.6 °F /  -0.8 °C 30.25in /  1024.3hPa NE 1.2mph /  1.9km/h   58% 0.00in /  0mm OVC
11:31 44.7 °F /  7.1 °C 31.7 °F /  -0.2 °C 30.24in /  1023.9hPa ENE 1.2mph /  1.9km/h   60% 0.00in /  0mm OVC
11:41 45.0 °F /  7.2 °C 31.5 °F /  -0.3 °C 30.25in /  1024.3hPa NE 1.2mph /  1.9km/h   59% 0.00in /  0mm OVC
11:52 45.5 °F /  7.5 °C 32.0 °F /  0 °C 30.24in /  1023.9hPa SSW 2.3mph /  3.7km/h   59% 0.00in /  0mm OVC
11:57 46.0 °F /  7.8 °C 32.0 °F /  0 °C 30.23in /  1023.6hPa WNW 2.3mph /  3.7km/h   58% 0.00in /  0mm OVC
12:02 46.2 °F /  7.9 °C 30.9 °F /  -0.6 °C 30.23in /  1023.6hPa Calm     55% 0.00in /  0mm OVC
12:07 46.4 °F /  8 °C 31.1 °F /  -0.5 °C 30.23in /  1023.6hPa NNW 1.2mph /  1.9km/h   55% 0.00in /  0mm OVC
12:17 46.5 °F /  8.1 °C 30.7 °F /  -0.7 °C 30.22in /  1023.2hPa SW 1.2mph /  1.9km/h   54% 0.00in /  0mm OVC
12:22 46.8 °F /  8.2 °C 30.1 °F /  -1.1 °C 30.21in /  1022.9hPa SW 4.6mph /  7.4km/h 4.6mph /  7.4km/h 52% 0.00in /  0mm OVC
12:27 46.6 °F /  8.1 °C 29.4 °F /  -1.4 °C 30.21in /  1022.9hPa SE 4.6mph /  7.4km/h 4.6mph /  7.4km/h 51% 0.00in /  0mm OVC
12:42 46.4 °F /  8 °C 29.2 °F /  -1.6 °C 30.20in /  1022.6hPa East 3.5mph /  5.6km/h 3.5mph /  5.6km/h 51% 0.00in /  0mm OVC
12:53 46.7 °F /  8.2 °C 30.0 °F /  -1.1 °C 30.19in /  1022.2hPa SE 1.2mph /  1.9km/h   52% 0.00in /  0mm OVC
13:03 46.9 °F /  8.3 °C 28.2 °F /  -2.1 °C 30.19in /  1022.2hPa South 2.3mph /  3.7km/h 2.3mph /  3.7km/h 48% 0.00in /  0mm OVC
13:08 47.0 °F /  8.3 °C 30.3 °F /  -0.9 °C 30.20in /  1022.6hPa South 2.3mph /  3.7km/h 2.3mph /  3.7km/h 52% 0.00in /  0mm OVC
13:13 47.1 °F /  8.4 °C 29.4 °F /  -1.4 °C 30.19in /  1022.2hPa SSE 3.5mph /  5.6km/h 3.5mph /  5.6km/h 50% 0.00in /  0mm OVC
13:18 47.3 °F /  8.5 °C 30.1 °F /  -1.1 °C 30.19in /  1022.2hPa South 3.5mph /  5.6km/h   51% 0.00in /  0mm OVC
13:23 47.5 °F /  8.6 °C 29.8 °F /  -1.2 °C 30.18in /  1021.9hPa SSE 3.5mph /  5.6km/h 3.5mph /  5.6km/h 50% 0.00in /  0mm OVC
13:28 47.6 °F /  8.7 °C 29.9 °F /  -1.2 °C 30.17in /  1021.6hPa SSE 3.5mph /  5.6km/h 3.5mph /  5.6km/h 50% 0.00in /  0mm OVC
13:38 48.2 °F /  9 °C 29.4 °F /  -1.4 °C 30.16in /  1021.2hPa NNE 2.3mph /  3.7km/h 2.3mph /  3.7km/h 48% 0.00in /  0mm OVC
13:43 48.3 °F /  9.1 °C 29.0 °F /  -1.7 °C 30.16in /  1021.2hPa NE 2.3mph /  3.7km/h   47% 0.00in /  0mm OVC
13:48 48.4 °F /  9.1 °C 29.6 °F /  -1.3 °C 30.17in /  1021.6hPa NE 2.3mph /  3.7km/h   48% 0.00in /  0mm OVC
13:54 48.5 °F /  9.2 °C 29.2 °F /  -1.6 °C 30.17in /  1021.6hPa ENE 2.3mph /  3.7km/h   47% 0.00in /  0mm OVC
14:04 48.5 °F /  9.2 °C 29.2 °F /  -1.6 °C 30.17in /  1021.6hPa NE 2.3mph /  3.7km/h 2.3mph /  3.7km/h 47% 0.00in /  0mm OVC
14:09 48.4 °F /  9.1 °C 28.5 °F /  -1.9 °C 30.16in /  1021.2hPa East 4.6mph /  7.4km/h 4.6mph /  7.4km/h 46% 0.00in /  0mm OVC
14:14 48.5 °F /  9.2 °C 29.2 °F /  -1.6 °C 30.16in /  1021.2hPa SE 4.6mph /  7.4km/h   47% 0.00in /  0mm OVC
14:19 48.7 °F /  9.3 °C 29.9 °F /  -1.2 °C 30.16in /  1021.2hPa SE 2.3mph /  3.7km/h 2.3mph /  3.7km/h 48% 0.00in /  0mm OVC
14:24 48.7 °F /  9.3 °C 28.8 °F /  -1.8 °C 30.16in /  1021.2hPa WSW 3.5mph /  5.6km/h 3.5mph /  5.6km/h 46% 0.00in /  0mm OVC
14:29 48.7 °F /  9.3 °C 27.7 °F /  -2.4 °C 30.16in /  1021.2hPa SSE 4.6mph /  7.4km/h 4.6mph /  7.4km/h 44% 0.00in /  0mm OVC
14:34 48.7 °F /  9.3 °C 27.2 °F /  -2.7 °C 30.16in /  1021.2hPa East 4.6mph /  7.4km/h 4.6mph /  7.4km/h 43% 0.00in /  0mm OVC
14:39 48.6 °F /  9.2 °C 27.6 °F /  -2.4 °C 30.17in /  1021.6hPa SE 4.6mph /  7.4km/h 4.6mph /  7.4km/h 44% 0.00in /  0mm OVC
14:44 48.6 °F /  9.2 °C 27.6 °F /  -2.4 °C 30.17in /  1021.6hPa SSE 4.6mph /  7.4km/h   44% 0.00in /  0mm OVC
14:50 48.6 °F /  9.2 °C 29.3 °F /  -1.5 °C 30.16in /  1021.2hPa SSW 2.3mph /  3.7km/h 2.3mph /  3.7km/h 47% 0.00in /  0mm OVC
14:55 48.7 °F /  9.3 °C 28.8 °F /  -1.8 °C 30.16in /  1021.2hPa Calm   1.0mph /  1.6km/h 46% 0.00in /  0mm OVC
15:00 48.7 °F /  9.3 °C 26.0 °F /  -3.3 °C 30.17in /  1021.6hPa NE 3.5mph /  5.6km/h 3.5mph /  5.6km/h 41% 0.00in /  0mm OVC
15:15 48.5 °F /  9.2 °C 25.8 °F /  -3.4 °C 30.16in /  1021.2hPa South 5.8mph /  9.3km/h   41% 0.00in /  0mm OVC
15:20 48.4 °F /  9.1 °C 26.3 °F /  -3.2 °C 30.16in /  1021.2hPa SSE 5.8mph /  9.3km/h   42% 0.00in /  0mm OVC
15:25 48.4 °F /  9.1 °C 26.9 °F /  -2.8 °C 30.16in /  1021.2hPa SE 2.3mph /  3.7km/h   43% 0.00in /  0mm OVC
15:30 48.3 °F /  9.1 °C 27.9 °F /  -2.3 °C 30.16in /  1021.2hPa ESE 1.2mph /  1.9km/h   45% 0.00in /  0mm OVC
15:35 48.2 °F /  9 °C 26.7 °F /  -2.9 °C 30.16in /  1021.2hPa SSE 1.2mph /  1.9km/h 1.2mph /  1.9km/h 43% 0.00in /  0mm OVC
15:56 47.6 °F /  8.7 °C 27.3 °F /  -2.6 °C 30.16in /  1021.2hPa North 2.3mph /  3.7km/h   45% 0.00in /  0mm OVC
16:01 47.5 °F /  8.6 °C 27.2 °F /  -2.7 °C 30.16in /  1021.2hPa East 4.6mph /  7.4km/h   45% 0.00in /  0mm OVC
16:06 47.4 °F /  8.6 °C 26.6 °F /  -3 °C 30.17in /  1021.6hPa SSE 4.6mph /  7.4km/h 4.6mph /  7.4km/h 44% 0.00in /  0mm OVC
16:16 47.2 °F /  8.4 °C 26.4 °F /  -3.1 °C 30.17in /  1021.6hPa SE 4.6mph /  7.4km/h 4.6mph /  7.4km/h 44% 0.00in /  0mm OVC
16:21 47.1 °F /  8.4 °C 26.3 °F /  -3.2 °C 30.17in /  1021.6hPa ENE 4.6mph /  7.4km/h 4.6mph /  7.4km/h 44% 0.00in /  0mm OVC
16:26 47.0 °F /  8.3 °C 26.7 °F /  -2.9 °C 30.17in /  1021.6hPa NE 1.2mph /  1.9km/h 1.2mph /  1.9km/h 45% 0.00in /  0mm OVC
16:31 46.8 °F /  8.2 °C 25.5 °F /  -3.6 °C 30.17in /  1021.6hPa NNE 3.5mph /  5.6km/h   43% 0.00in /  0mm OVC
16:41 46.7 °F /  8.2 °C 25.4 °F /  -3.7 °C 30.17in /  1021.6hPa ENE 2.3mph /  3.7km/h 2.3mph /  3.7km/h 43% 0.00in /  0mm OVC
16:47 46.6 °F /  8.1 °C 26.4 °F /  -3.1 °C 30.16in /  1021.2hPa ESE 2.3mph /  3.7km/h 2.3mph /  3.7km/h 45% 0.00in /  0mm OVC
16:52 46.4 °F /  8 °C 26.7 °F /  -2.9 °C 30.17in /  1021.6hPa ENE 2.3mph /  3.7km/h   46% 0.00in /  0mm OVC
16:57 46.4 °F /  8 °C 26.2 °F /  -3.2 °C 30.17in /  1021.6hPa NE 2.3mph /  3.7km/h 2.3mph /  3.7km/h 45% 0.00in /  0mm OVC
17:02 46.3 °F /  7.9 °C 27.2 °F /  -2.7 °C 30.17in /  1021.6hPa NW 2.3mph /  3.7km/h   47% 0.00in /  0mm OVC
17:12 46.0 °F /  7.8 °C 27.4 °F /  -2.6 °C 30.17in /  1021.6hPa WNW 2.3mph /  3.7km/h   48% 0.00in /  0mm OVC
17:17 45.9 °F /  7.7 °C 27.8 °F /  -2.3 °C 30.17in /  1021.6hPa WNW 2.3mph /  3.7km/h   49% 0.00in /  0mm OVC
17:27 45.8 °F /  7.7 °C 28.2 °F /  -2.1 °C 30.17in /  1021.6hPa WNW 1.2mph /  1.9km/h 1.2mph /  1.9km/h 50% 0.00in /  0mm OVC
17:32 45.7 °F /  7.6 °C 28.1 °F /  -2.2 °C 30.17in /  1021.6hPa WNW 1.2mph /  1.9km/h   50% 0.00in /  0mm OVC
17:37 45.7 °F /  7.6 °C 27.1 °F /  -2.7 °C 30.16in /  1021.2hPa WNW 1.2mph /  1.9km/h 1.2mph /  1.9km/h 48% 0.00in /  0mm OVC
17:42 45.7 °F /  7.6 °C 28.1 °F /  -2.2 °C 30.16in /  1021.2hPa ENE 1.2mph /  1.9km/h   50% 0.00in /  0mm OVC
17:47 45.6 °F /  7.6 °C 28.0 °F /  -2.2 °C 30.17in /  1021.6hPa ENE 1.2mph /  1.9km/h   50% 0.00in /  0mm OVC
17:53 45.5 °F /  7.5 °C 29.3 °F /  -1.5 °C 30.16in /  1021.2hPa ENE 1.2mph /  1.9km/h   53% 0.00in /  0mm OVC
17:58 45.3 °F /  7.4 °C 28.7 °F /  -1.8 °C 30.16in /  1021.2hPa ENE 1.2mph /  1.9km/h   52% 0.00in /  0mm OVC
18:08 45.1 °F /  7.3 °C 29.0 °F /  -1.7 °C 30.16in /  1021.2hPa ENE 1.2mph /  1.9km/h   53% 0.00in /  0mm OVC
18:18 45.1 °F /  7.3 °C 29.0 °F /  -1.7 °C 30.16in /  1021.2hPa West 1.2mph /  1.9km/h 1.2mph /  1.9km/h 53% 0.00in /  0mm OVC
18:23 45.1 °F /  7.3 °C 29.4 °F /  -1.4 °C 30.16in /  1021.2hPa North 1.2mph /  1.9km/h   54% 0.00in /  0mm OVC
18:30 45.2 °F /  7.3 °C 29.1 °F /  -1.6 °C 30.16in /  1021.2hPa NNE 1.2mph /  1.9km/h   53% 0.00in /  0mm OVC
18:35 45.1 °F /  7.3 °C 29.0 °F /  -1.7 °C 30.16in /  1021.2hPa South 1.2mph /  1.9km/h   53% 0.00in /  0mm OVC
18:40 45.1 °F /  7.3 °C 29.4 °F /  -1.4 °C 30.16in /  1021.2hPa SSW 1.2mph /  1.9km/h   54% 0.00in /  0mm OVC
18:45 44.9 °F /  7.2 °C 29.7 °F /  -1.3 °C 30.16in /  1021.2hPa Calm     55% 0.00in /  0mm OVC
18:55 44.7 °F /  7.1 °C 29.5 °F /  -1.4 °C 30.16in /  1021.2hPa Calm     55% 0.00in /  0mm OVC
19:00 44.7 °F /  7.1 °C 30.0 °F /  -1.1 °C 30.16in /  1021.2hPa Calm     56% 0.00in /  0mm OVC
19:05 44.7 °F /  7.1 °C 29.5 °F /  -1.4 °C 30.17in /  1021.6hPa SSW 1.2mph /  1.9km/h   55% 0.00in /  0mm OVC
19:21 44.6 °F /  7 °C 30.3 °F /  -0.9 °C 30.17in /  1021.6hPa Calm     57% 0.00in /  0mm OVC
19:26 44.4 °F /  6.9 °C 30.5 °F /  -0.8 °C 30.17in /  1021.6hPa Calm     58% 0.00in /  0mm OVC
19:36 44.0 °F /  6.7 °C 30.6 °F /  -0.8 °C 30.17in /  1021.6hPa Calm     59% 0.00in /  0mm OVC
19:41 43.7 °F /  6.5 °C 31.5 °F /  -0.3 °C 30.17in /  1021.6hPa Calm     62% 0.00in /  0mm OVC
19:46 43.4 °F /  6.3 °C 31.2 °F /  -0.4 °C 30.17in /  1021.6hPa Calm     62% 0.00in /  0mm OVC
19:51 43.2 °F /  6.2 °C 30.6 °F /  -0.8 °C 30.17in /  1021.6hPa Calm     61% 0.00in /  0mm OVC
20:01 42.8 °F /  6 °C 31.5 °F /  -0.3 °C 30.16in /  1021.2hPa Calm     64% 0.00in /  0mm SCT
20:06 42.7 °F /  5.9 °C 31.7 °F /  -0.2 °C 30.16in /  1021.2hPa Calm     65% 0.00in /  0mm SCT
20:16 42.4 °F /  5.8 °C 31.5 °F /  -0.3 °C 30.16in /  1021.2hPa Calm     65% 0.00in /  0mm SCT
20:22 42.3 °F /  5.7 °C 31.4 °F /  -0.3 °C 30.15in /  1020.9hPa Calm     65% 0.00in /  0mm SCT
20:27 42.3 °F /  5.7 °C 31.4 °F /  -0.3 °C 30.15in /  1020.9hPa Calm     65% 0.00in /  0mm SCT
20:32 42.4 °F /  5.8 °C 31.8 °F /  -0.1 °C 30.16in /  1021.2hPa Calm     66% 0.00in /  0mm SCT
20:47 42.5 °F /  5.8 °C 31.9 °F /  -0.1 °C 30.16in /  1021.2hPa Calm     66% 0.00in /  0mm SCT
20:57 42.6 °F /  5.9 °C 33.1 °F /  0.6 °C 30.16in /  1021.2hPa Calm     69% 0.00in /  0mm SCT
21:03 42.6 °F /  5.9 °C 33.1 °F /  0.6 °C 30.16in /  1021.2hPa Calm     69% 0.00in /  0mm OVC
21:08 42.6 °F /  5.9 °C 32.0 °F /  0 °C 30.15in /  1020.9hPa Calm     66% 0.00in /  0mm OVC
21:13 42.5 °F /  5.8 °C 31.9 °F /  -0.1 °C 30.15in /  1020.9hPa Calm     66% 0.00in /  0mm OVC
21:38 42.7 °F /  5.9 °C 32.5 °F /  0.3 °C 30.15in /  1020.9hPa Calm     67% 0.00in /  0mm OVC
21:53 42.9 °F /  6.1 °C 31.9 °F /  -0.1 °C 30.15in /  1020.9hPa Calm   0.1mph /  0.2km/h 65% 0.00in /  0mm OVC
21:58 42.9 °F /  6.1 °C 31.9 °F /  -0.1 °C 30.15in /  1020.9hPa West 1.2mph /  1.9km/h   65% 0.00in /  0mm OVC
22:03 43.0 °F /  6.1 °C 31.6 °F /  -0.2 °C 30.15in /  1020.9hPa West 1.2mph /  1.9km/h   64% 0.00in /  0mm OVC
22:08 43.0 °F /  6.1 °C 31.6 °F /  -0.2 °C 30.15in /  1020.9hPa Calm     64% 0.00in /  0mm OVC
22:14 43.1 °F /  6.2 °C 31.0 °F /  -0.6 °C 30.15in /  1020.9hPa WSW 1.2mph /  1.9km/h   62% 0.00in /  0mm OVC
22:23 43.1 °F /  6.2 °C 31.4 °F /  -0.3 °C 30.16in /  1021.2hPa SW 1.2mph /  1.9km/h   63% 0.00in /  0mm OVC
22:37 42.9 °F /  6.1 °C 31.6 °F /  -0.2 °C 30.16in /  1021.2hPa Calm     64% 0.00in /  0mm OVC
22:42 42.9 °F /  6.1 °C 31.2 °F /  -0.4 °C 30.15in /  1020.9hPa Calm     63% 0.00in /  0mm OVC
22:46 42.8 °F /  6 °C 31.8 °F /  -0.1 °C 30.15in /  1020.9hPa Calm     65% 0.00in /  0mm OVC
22:56 42.7 °F /  5.9 °C 31.4 °F /  -0.3 °C 30.14in /  1020.5hPa Calm     64% 0.00in /  0mm OVC
23:01 42.6 °F /  5.9 °C 31.3 °F /  -0.4 °C 30.14in /  1020.5hPa Calm     64% 0.00in /  0mm OVC
23:06 42.5 °F /  5.8 °C 31.6 °F /  -0.2 °C 30.14in /  1020.5hPa Calm     65% 0.00in /  0mm OVC
23:11 42.5 °F /  5.8 °C 31.6 °F /  -0.2 °C 30.14in /  1020.5hPa Calm     65% 0.00in /  0mm OVC
23:16 42.5 °F /  5.8 °C 30.8 °F /  -0.7 °C 30.14in /  1020.5hPa WSW 1.2mph /  1.9km/h   63% 0.00in /  0mm OVC
23:21 42.6 °F /  5.9 °C 30.9 °F /  -0.6 °C 30.14in /  1020.5hPa West 1.2mph /  1.9km/h   63% 0.00in /  0mm OVC
23:26 42.7 °F /  5.9 °C 31.4 °F /  -0.3 °C 30.14in /  1020.5hPa NW 1.2mph /  1.9km/h 1.2mph /  1.9km/h 64% 0.00in /  0mm OVC
23:31 42.7 °F /  5.9 °C 31.4 °F /  -0.3 °C 30.14in /  1020.5hPa NW 1.2mph /  1.9km/h   64% 0.00in /  0mm OVC
23:36 42.6 °F /  5.9 °C 30.9 °F /  -0.6 °C 30.14in /  1020.5hPa NW 1.2mph /  1.9km/h   63% 0.00in /  0mm OVC
23:42 42.6 °F /  5.9 °C 31.3 °F /  -0.4 °C 30.14in /  1020.5hPa ENE 1.2mph /  1.9km/h   64% 0.00in /  0mm OVC
23:47 42.6 °F /  5.9 °C 30.9 °F /  -0.6 °C 30.14in /  1020.5hPa ESE 1.2mph /  1.9km/h   63% 0.00in /  0mm OVC
23:57 42.6 °F /  5.9 °C 30.9 °F /  -0.6 °C 30.14in /  1020.5hPa WSW 1.2mph /  1.9km/h   63% 0.00in /  0mm OVC
Piedmont Bend
Compliments of Weather Underground - 4 mb